Pen Argyl, Pennsylvania
Current Conditions -  °F | °C
As of 6:51 PM on Monday 24 Nov 2014 (Local Time) from KABE Reporting Station
Clear Clear  
Wind Chill: 64°   Ceiling: Unl
Heat Index: 64°   Visibility: 10mi
Dew Point: 53°   Wind: 14mph
Humidity: 67%   Direction: 200°SSW
Pressure: 29.65"   Gusts: NA
Location:  40.87°N, 75.25°W
Report Text: KABE 242351Z 20012KT 10SM CLR 18/12 A2965 RMK AO2 SLP037 T01780117 10217 20178 51017
Loading
Personal Weather Stations






























Interactive Weather Map New forecast layout! Learn more

10-Day Weather Forecast

Advertisements
Track Severe Weather on mobile